ROMMA est une association bénévole à but non lucratif. Votre soutien est indispensable : ADHERER à ROMMA ou FAIRE un DON

Montélimar - (26, Drôme)

Basse vallée du Rhône (88 m)   Longitude: 04° 45' E   Latitude: 44° 32' N Station partenaire n°164
 

Détail journalier du     <<     >>

Température Precipitation Humidité Pression Vent Dir Rafale Dir. rafale Ensol.
Heure (°C) (mm) (%) (hPa) (km/h) (km/h) (min)
01:00 15.1084101300---0
02:00 15.0085101200---0
03:00 15.0085101300---0
04:00 14.4085101200---0
05:00 14.9086101200---0
06:00 15.00.486101300---0
07:00 14.70.486101300---0
08:00 14.70.285101300---0
09:00 14.8086101300---11
10:00 15.5085101300---0
11:00 16.4086101400---0
12:00 19.9078101300---17
13:00 21.9066101300---57
14:00 22.605910121---18NO30
15:00 23.705010111---11NO16
16:00 24.504810113---18SSO47
17:00 25.104210115---27ONO58
18:00 24.1045101110O24O15
19:00 22.705410119O21NO0
20:00 21.605810125NNO19NNO0
21:00 20.7061101200---0
22:00 19.6068101300---0
23:00 18.9070101300---0
minuit 18.8070101300---0

Graphique du 25-09-2019

 

Serveur OMMA